Impacts METAR Board
IDs:

KISM - Kissimmee Muni, FL, US

Updated at: 0600 UTC 22 Oct 2021
Potential Impact None Slight Moderate High
Time 21/18Z 21/19Z 21/20Z 21/21Z 21/22Z 21/23Z 22/00Z 22/01Z 22/02Z 22/03Z 22/04Z 22/05Z 22/06Z
Temp84 85 85 84 83 80 78 76 74 73 72 71 71
Dewpt65 65 63 62 62 63 65 66 66 67 67 67 67
Altim30.13 30.11 30.10 30.10 30.09 30.10 30.11 30.12 30.12 30.11 30.11 30.10 30.08
VIS10 10 10 10 10 10 10 10 10 10 10 10 10
CIG-- -- -- -- -- -- -- -- -- -- -- -- --
CoverSCTSCTSCTCLRCLRCLRCLRCLRCLRCLRCLRCLRCLR
FltCatVFRVFRVFRVFRVFRVFRVFRVFRVFRVFRVFRVFRVFR
WX--------------------------
WDir10090120100110901009090100000
WSpd8 5 7 4 7 7 6 5 3 3 0 0 0
WGst-- -- -- -- -- -- -- -- -- -- -- -- --
Raw hourly METARs
KISM 211756Z 10008KT 10SM SCT044 29/18 A3013 RMK AO2 SLP204 T02890183 10289 20200 58021 $
KISM 211856Z 09005KT 10SM SCT047 29/18 A3011 RMK AO2 SLP196 T02940183 $
KISM 211956Z 12007KT 10SM SCT045 29/17 A3010 RMK AO2 SLP192 T02940172 $
KISM 212056Z 10004KT 10SM CLR 29/17 A3010 RMK AO2 SLP191 T02890167 56013 $
KISM 212156Z 11007KT 10SM CLR 28/17 A3009 RMK AO2 SLP190 T02830167 $
KISM 212256Z 09007KT 10SM CLR 27/17 A3010 RMK AO2 SLP191 T02670172 $
KISM 212356Z 10006KT 10SM CLR 26/18 A3011 RMK AO2 SLP196 T02560183 10294 20256 53004 $
KISM 220056Z 09005KT 10SM CLR 24/19 A3012 RMK AO2 SLP198 T02440189 $
KISM 220156Z AUTO 09003KT 10SM CLR 23/19 A3012 RMK AO2 SLP198 T02330189 $
KISM 220256Z AUTO 10003KT 10SM CLR 23/19 A3011 RMK AO2 SLP197 T02280194 50002 $
KISM 220356Z AUTO 00000KT 10SM CLR 22/19 A3011 RMK AO2 SLP194 T02220194 $
KISM 220456Z AUTO 00000KT 10SM CLR 22/19 A3010 RMK AO2 SLP190 T02170194 402940194 $
KISM 220556Z AUTO 00000KT 10SM CLR 22/19 A3008 RMK AO2 SLP186 T02170194 10256 20211 58011 $



Page loaded:  06:22 UTC  |   11:22 PM Pacific  |   12:22 AM Mountain  |   01:22 AM Central  |   02:22 AM Eastern

 

ADVISORIES

FORECASTS

FORECASTS

OBSERVATIONS

USER TOOLS

ABOUT US